Time;durP1;ratioP1;P1;durP2;ratioP2;P2;SDS_P1;SDS_P2;PMS_P1;PMS_P2;Temp;Humidity;BMP_temperature;BMP_pressure;BME280_temperature;BME280_humidity;BME280_pressure;Samples;Min_cycle;Max_cycle;Signal;HPM_P1;HPM_P2
2022/03/15 06:09:55;;;;;;;10.65;2.13;;;22.40;71.20;;;;;;1408971;26;20037;-68
2022/03/15 06:12:23;;;;;;;9.85;1.95;;;22.40;71.70;;;;;;5015761;28;20048;-68
2022/03/15 06:14:50;;;;;;;9.25;1.85;;;22.40;70.30;;;;;;5037058;28;20461;-68
2022/03/15 06:17:18;;;;;;;9.82;1.83;;;22.30;70.40;;;;;;5040847;28;20060;-68
2022/03/15 06:19:45;;;;;;;11.35;1.80;;;22.40;72.10;;;;;;5048769;28;20037;-69
2022/03/15 06:22:12;;;;;;;7.32;1.63;;;22.30;72.80;;;;;;5045512;28;20114;-68
2022/03/15 06:24:39;;;;;;;8.35;2.15;;;22.30;72.90;;;;;;5039498;28;20437;-68
2022/03/15 06:27:06;;;;;;;8.73;2.22;;;22.30;72.80;;;;;;5047654;28;20071;-68
2022/03/15 06:29:35;;;;;;;6.68;1.60;;;22.30;72.20;;;;;;5048724;28;20037;-68
2022/03/15 06:32:02;;;;;;;10.93;2.10;;;22.30;71.00;;;;;;5047019;28;20032;-69
2022/03/15 06:34:29;;;;;;;9.15;1.92;;;22.30;71.30;;;;;;5030796;28;20057;-68
2022/03/15 06:36:58;;;;;;;15.02;2.45;;;22.30;72.50;;;;;;5041620;28;20039;-69
2022/03/15 06:39:25;;;;;;;8.77;1.80;;;22.30;72.20;;;;;;5046425;28;20041;-66
2022/03/15 06:41:52;;;;;;;18.30;2.10;;;22.30;72.00;;;;;;5048624;28;20087;-67
2022/03/15 06:44:19;;;;;;;10.60;1.90;;;22.30;71.80;;;;;;5050784;28;20032;-66
2022/03/15 06:46:47;;;;;;;10.93;2.13;;;22.20;71.60;;;;;;5052736;28;20045;-66
2022/03/15 06:49:14;;;;;;;8.50;1.80;;;22.20;69.90;;;;;;5042581;28;20034;-67
2022/03/15 06:51:41;;;;;;;7.88;1.95;;;22.20;70.00;;;;;;5046029;28;20569;-73
2022/03/15 06:54:08;;;;;;;8.23;2.25;;;22.20;69.80;;;;;;5015633;28;20155;-70
2022/03/15 06:56:39;;;;;;;8.95;1.85;;;22.20;69.80;;;;;;5043712;28;20037;-70
2022/03/15 06:59:06;;;;;;;8.00;2.05;;;22.20;69.80;;;;;;5049855;28;20368;-68
2022/03/15 07:01:34;;;;;;;10.65;2.35;;;22.20;71.40;;;;;;5052125;28;20114;-67
2022/03/15 07:04:01;;;;;;;12.63;2.30;;;22.20;69.90;;;;;;5052698;28;20724;-67
2022/03/15 07:06:28;;;;;;;8.40;1.77;;;22.20;70.80;;;;;;5050350;28;20170;-68
2022/03/15 07:08:55;;;;;;;6.70;1.42;;;22.20;70.10;;;;;;5031798;28;20086;-68
2022/03/15 07:11:23;;;;;;;8.98;1.98;;;22.20;70.10;;;;;;5051440;28;20045;-68
2022/03/15 07:13:50;;;;;;;9.13;2.17;;;22.20;70.30;;;;;;5048992;28;20062;-68
2022/03/15 07:16:17;;;;;;;7.50;1.80;;;22.10;70.80;;;;;;5048121;28;20029;-68
2022/03/15 07:18:45;;;;;;;13.13;2.03;;;22.10;70.90;;;;;;5045494;28;20068;-68
2022/03/15 07:21:12;;;;;;;14.48;2.20;;;22.00;71.00;;;;;;5029813;28;20047;-67
2022/03/15 07:23:39;;;;;;;7.15;1.77;;;22.10;71.00;;;;;;5044848;28;20025;-67
2022/03/15 07:26:07;;;;;;;9.07;2.00;;;22.10;69.90;;;;;;5051436;28;20613;-68
2022/03/15 07:28:34;;;;;;;6.50;1.67;;;22.10;70.70;;;;;;5049297;28;20029;-67
2022/03/15 07:31:02;;;;;;;8.48;1.70;;;22.10;70.40;;;;;;5038122;28;20155;-68
2022/03/15 07:33:29;;;;;;;6.78;1.67;;;22.00;70.10;;;;;;5044746;28;20108;-67
2022/03/15 07:35:56;;;;;;;8.73;1.83;;;22.00;70.00;;;;;;5046642;28;20480;-69
2022/03/15 07:38:23;;;;;;;7.40;1.50;;;22.00;70.00;;;;;;5031756;28;20033;-68
2022/03/15 07:40:52;;;;;;;8.95;1.60;;;22.00;70.70;;;;;;5050865;28;20033;-69
2022/03/15 07:43:23;;;;;;;6.63;1.97;;;22.00;71.40;;;;;;5047120;28;20480;-68
2022/03/15 07:45:50;;;;;;;8.35;1.83;;;22.00;71.70;;;;;;5050015;28;20103;-69
2022/03/15 07:48:18;;;;;;;5.20;1.73;;;22.00;70.70;;;;;;5030304;28;20041;-70
2022/03/15 07:50:45;;;;;;;7.50;1.67;;;22.00;70.30;;;;;;5048821;28;20106;-69
2022/03/15 07:53:12;;;;;;;7.43;1.80;;;22.00;70.70;;;;;;5052338;28;20040;-69
2022/03/15 07:55:40;;;;;;;7.18;1.80;;;22.00;71.20;;;;;;5048372;28;20499;-69
2022/03/15 07:58:07;;;;;;;7.80;1.90;;;22.00;71.10;;;;;;5051945;28;20037;-69
2022/03/15 08:00:34;;;;;;;6.15;1.52;;;21.90;71.30;;;;;;5032041;28;20045;-69
2022/03/15 08:03:01;;;;;;;6.90;1.83;;;21.90;71.40;;;;;;5055907;28;20048;-69
2022/03/15 08:05:29;;;;;;;8.30;1.65;;;21.90;71.40;;;;;;5043377;28;20087;-70
2022/03/15 08:07:56;;;;;;;9.57;1.95;;;21.90;71.20;;;;;;5050285;28;20120;-70
2022/03/15 08:10:23;;;;;;;9.07;1.77;;;21.90;70.50;;;;;;5038058;28;20057;-71
2022/03/15 08:12:51;;;;;;;9.13;1.92;;;21.90;71.40;;;;;;5049193;28;20028;-69
2022/03/15 08:15:18;;;;;;;6.85;2.30;;;21.80;71.80;;;;;;5050853;28;20060;-70
2022/03/15 08:17:45;;;;;;;10.88;2.50;;;21.80;71.60;;;;;;5029347;28;20390;-70
2022/03/15 08:20:16;;;;;;;11.90;2.20;;;21.80;71.90;;;;;;5032647;28;20045;-70
2022/03/15 08:22:44;;;;;;;9.00;1.92;;;21.80;72.40;;;;;;5049057;28;20654;-70
2022/03/15 08:25:11;;;;;;;9.13;2.13;;;21.80;71.80;;;;;;5048418;28;20049;-70
2022/03/15 08:27:38;;;;;;;9.27;2.33;;;21.80;72.00;;;;;;5047762;28;20036;-69
2022/03/15 08:30:06;;;;;;;10.10;2.30;;;21.80;72.50;;;;;;5047536;28;20500;-69
2022/03/15 08:32:34;;;;;;;12.50;2.17;;;21.80;73.30;;;;;;5011991;28;20040;-68
2022/03/15 08:35:02;;;;;;;9.48;1.98;;;21.80;75.60;;;;;;5050763;28;20154;-69
2022/03/15 08:37:30;;;;;;;16.33;2.45;;;21.80;78.10;;;;;;5049813;28;21312;-70
2022/03/15 08:39:58;;;;;;;18.98;3.20;;;21.80;78.30;;;;;;5049962;28;20434;-70
2022/03/15 08:42:26;;;;;;;11.65;2.33;;;21.80;79.80;;;;;;5028728;28;20041;-70
2022/03/15 08:44:54;;;;;;;12.13;2.40;;;21.70;80.00;;;;;;5016818;28;20064;-69
2022/03/15 08:47:21;;;;;;;12.57;2.30;;;21.60;80.80;;;;;;5051149;28;20391;-70
2022/03/15 08:49:48;;;;;;;15.23;2.72;;;21.50;81.30;;;;;;5048654;28;20040;-70
2022/03/15 08:52:15;;;;;;;7.60;2.63;;;21.50;81.40;;;;;;5029140;28;20049;-70
2022/03/15 08:54:43;;;;;;;12.35;2.35;;;21.50;81.60;;;;;;5049294;28;20068;-69
2022/03/15 08:57:10;;;;;;;11.77;2.63;;;21.40;81.60;;;;;;5048098;28;20033;-69
2022/03/15 08:59:37;;;;;;;11.05;1.75;;;21.40;81.30;;;;;;5030483;28;20041;-69
2022/03/15 09:02:08;;;;;;;16.17;2.33;;;21.30;80.40;;;;;;5042386;28;20109;-67
2022/03/15 09:04:39;;;;;;;7.72;2.28;;;21.30;80.50;;;;;;5043602;28;20557;-69
2022/03/15 09:07:06;;;;;;;9.35;1.90;;;21.30;79.90;;;;;;5048146;28;20037;-68
2022/03/15 09:09:33;;;;;;;7.95;2.40;;;21.30;79.50;;;;;;5039286;28;20033;-69
2022/03/15 09:12:02;;;;;;;10.82;2.25;;;21.30;79.80;;;;;;5025670;28;20124;-70
2022/03/15 09:14:29;;;;;;;7.68;2.00;;;21.30;79.70;;;;;;5015330;28;20040;-71
2022/03/15 09:16:57;;;;;;;12.02;2.13;;;21.30;79.10;;;;;;5011296;28;20079;-71
2022/03/15 09:19:25;;;;;;;11.25;2.63;;;21.30;79.10;;;;;;5028713;28;20036;-69
2022/03/15 09:21:52;;;;;;;10.57;1.95;;;21.30;79.60;;;;;;5040999;28;20045;-72
2022/03/15 09:24:19;;;;;;;5.13;1.60;;;21.20;79.90;;;;;;5045451;28;20116;-70
2022/03/15 09:26:47;;;;;;;42.90;3.25;;;21.30;80.30;;;;;;5042890;28;20126;-68
2022/03/15 09:29:14;;;;;;;11.55;2.28;;;21.20;80.50;;;;;;5045349;28;20056;-69
2022/03/15 09:31:41;;;;;;;7.30;1.98;;;21.20;80.20;;;;;;5046636;28;20081;-70
2022/03/15 09:34:08;;;;;;;18.05;2.33;;;21.20;80.10;;;;;;5029123;28;20029;-69
2022/03/15 09:36:35;;;;;;;7.53;1.88;;;21.20;80.40;;;;;;5043913;28;20048;-70
2022/03/15 09:39:03;;;;;;;10.30;2.22;;;21.20;80.00;;;;;;5047198;28;20497;-69
2022/03/15 09:41:30;;;;;;;9.38;1.70;;;21.10;79.30;;;;;;5047813;28;20427;-70
2022/03/15 09:43:57;;;;;;;9.18;2.00;;;21.10;78.80;;;;;;5024743;28;20025;-70
2022/03/15 09:46:24;;;;;;;6.72;1.77;;;21.00;79.00;;;;;;5007195;28;20052;-69
2022/03/15 09:48:55;;;;;;;8.15;1.80;;;21.10;78.90;;;;;;4994638;28;20034;-70
2022/03/15 09:51:23;;;;;;;9.27;1.90;;;21.00;78.50;;;;;;5027352;28;20546;-70
2022/03/15 09:53:50;;;;;;;33.17;2.90;;;21.10;78.40;;;;;;5028152;28;20056;-69
2022/03/15 09:56:18;;;;;;;7.45;1.90;;;21.10;78.70;;;;;;5050505;28;20613;-71
2022/03/15 09:58:45;;;;;;;11.13;2.10;;;21.10;77.90;;;;;;5048607;28;20078;-71
2022/03/15 10:01:18;;;;;;;18.58;2.13;;;21.10;78.10;;;;;;5030094;28;20052;-70
2022/03/15 10:03:46;;;;;;;7.25;1.67;;;21.10;78.20;;;;;;5041229;28;20092;-71
2022/03/15 10:06:16;;;;;;;8.52;2.05;;;21.10;78.30;;;;;;5044453;28;20034;-71
2022/03/15 10:08:44;;;;;;;6.63;2.20;;;21.10;78.00;;;;;;5026631;28;20506;-71
2022/03/15 10:11:12;;;;;;;9.25;1.85;;;21.20;78.20;;;;;;5025808;28;20372;-71
2022/03/15 10:13:41;;;;;;;8.38;1.60;;;21.10;78.80;;;;;;5047101;28;20033;-71
2022/03/15 10:16:12;;;;;;;10.10;1.92;;;21.10;79.30;;;;;;5025685;28;20509;-70
2022/03/15 10:18:39;;;;;;;4.82;1.50;;;21.20;79.10;;;;;;5024287;28;20072;-67
2022/03/15 10:21:06;;;;;;;6.20;1.27;;;21.10;79.10;;;;;;5039024;28;20044;-68
2022/03/15 10:23:39;;;;;;;5.45;1.30;;;21.10;80.00;;;;;;5048557;28;20044;-69
2022/03/15 10:26:07;;;;;;;6.13;1.20;;;21.00;79.80;;;;;;5034261;28;20602;-70
2022/03/15 10:28:36;;;;;;;4.45;1.08;;;21.00;79.80;;;;;;5033384;28;20037;-69
2022/03/15 10:31:05;;;;;;;5.55;1.27;;;21.00;79.60;;;;;;5033263;28;20037;-68
2022/03/15 10:33:32;;;;;;;5.13;1.10;;;21.00;80.40;;;;;;5050224;28;20056;-68
2022/03/15 10:35:59;;;;;;;5.22;1.30;;;20.90;80.10;;;;;;5031041;28;20424;-70
2022/03/15 10:38:26;;;;;;;6.53;1.70;;;21.00;80.60;;;;;;5033614;28;20041;-69
2022/03/15 10:40:55;;;;;;;3.20;1.10;;;20.90;81.00;;;;;;5051878;28;20044;-66
2022/03/15 10:43:24;;;;;;;6.72;1.48;;;20.80;81.40;;;;;;5034234;28;20037;-69
2022/03/15 10:45:56;;;;;;;7.93;1.52;;;20.80;81.20;;;;;;5045506;28;20195;-70
2022/03/15 10:48:26;;;;;;;8.75;1.70;;;20.80;81.20;;;;;;5048158;28;20045;-69
2022/03/15 10:50:57;;;;;;;4.68;1.30;;;20.80;81.60;;;;;;5043378;28;20033;-70
2022/03/15 10:53:35;;;;;;;5.50;1.40;;;20.80;81.00;;;;;;5036036;28;20045;-71
2022/03/15 10:56:15;;;;;;;7.45;1.50;;;20.80;81.40;;;;;;5017835;28;20047;-70
2022/03/15 10:58:49;;;;;;;8.27;1.40;;;20.70;83.70;;;;;;5052241;28;20113;-68
2022/03/15 11:01:26;;;;;;;7.60;1.60;;;20.60;85.40;;;;;;5049887;28;20044;-69
2022/03/15 11:04:03;;;;;;;12.10;1.95;;;20.40;85.80;;;;;;5044914;28;20041;-70
2022/03/15 11:06:44;;;;;;;5.68;1.38;;;20.20;86.90;;;;;;5049194;28;20064;-68
2022/03/15 11:09:25;;;;;;;2.80;1.00;;;20.10;86.60;;;;;;5048388;28;20525;-69
2022/03/15 11:12:04;;;;;;;7.22;1.05;;;20.00;86.20;;;;;;5046455;28;20132;-71
2022/03/15 11:14:33;;;;;;;6.00;1.10;;;19.90;86.40;;;;;;5034854;28;20036;-69
2022/03/15 11:17:01;;;;;;;4.70;1.37;;;19.90;86.50;;;;;;5044155;28;20040;-72
2022/03/15 11:19:29;;;;;;;2.78;1.08;;;20.00;86.30;;;;;;5030690;28;20283;-71
2022/03/15 11:21:58;;;;;;;5.75;1.13;;;20.00;87.10;;;;;;5022990;28;20053;-69
2022/03/15 11:24:26;;;;;;;3.33;1.35;;;20.00;86.70;;;;;;5029461;28;20116;-69
2022/03/15 11:26:53;;;;;;;3.33;1.38;;;19.90;87.60;;;;;;5033754;28;20159;-69
2022/03/15 11:29:22;;;;;;;5.60;1.20;;;19.90;87.50;;;;;;5034541;28;20025;-68
2022/03/15 11:31:50;;;;;;;4.05;1.13;;;19.80;87.80;;;;;;5024750;28;20116;-68
2022/03/15 11:34:21;;;;;;;6.47;1.40;;;19.80;88.00;;;;;;5030384;28;20035;-68
2022/03/15 11:36:48;;;;;;;5.75;1.25;;;19.80;87.90;;;;;;5033235;28;20032;-68
2022/03/15 11:39:15;;;;;;;3.28;0.93;;;19.80;87.80;;;;;;5047734;28;20033;-68
2022/03/15 11:41:43;;;;;;;5.03;1.20;;;19.80;87.90;;;;;;5052757;28;20031;-67
2022/03/15 11:44:36;;;;;;;4.43;1.35;;;19.90;88.60;;;;;;5034123;28;20048;-67
2022/03/15 11:47:22;;;;;;;4.63;1.38;;;19.90;88.80;;;;;;5005048;28;20125;-67
2022/03/15 11:50:12;;;;;;;5.32;1.40;;;19.90;88.70;;;;;;5031034;28;20055;-68
2022/03/15 11:53:07;;;;;;;9.57;1.85;;;19.90;89.10;;;;;;5025464;28;20414;-68
2022/03/15 11:55:53;;;;;;;14.90;2.47;;;20.00;89.30;;;;;;5035705;28;20044;-68
2022/03/15 11:58:28;;;;;;;9.77;1.92;;;20.00;89.50;;;;;;5034150;28;20404;-68
2022/03/15 12:00:57;;;;;;;10.20;1.83;;;20.00;89.50;;;;;;5016271;28;20041;-69
2022/03/15 12:03:26;;;;;;;11.75;2.17;;;20.00;89.50;;;;;;5049325;28;20051;-70
2022/03/15 12:05:58;;;;;;;8.52;1.88;;;20.10;89.40;;;;;;5049149;28;20040;-69
2022/03/15 12:08:29;;;;;;;7.57;2.10;;;20.10;89.40;;;;;;5039926;28;20466;-69
2022/03/15 12:10:57;;;;;;;6.22;1.67;;;20.10;89.50;;;;;;5050948;28;20041;-69
2022/03/15 12:13:57;;;;;;;8.88;2.10;;;20.10;89.60;;;;;;5021428;28;20029;-70
2022/03/15 12:16:34;;;;;;;7.75;1.77;;;20.10;89.80;;;;;;5015625;28;20497;-68
2022/03/15 12:19:17;;;;;;;5.22;1.77;;;20.10;90.10;;;;;;5014020;28;20142;-69
2022/03/15 12:21:50;;;;;;;5.90;1.80;;;20.10;90.40;;;;;;5026962;28;20045;-70
2022/03/15 12:24:39;;;;;;;8.80;1.90;;;20.00;90.60;;;;;;5032292;28;20165;-70
2022/03/15 12:27:08;;;;;;;7.90;1.70;;;20.10;90.90;;;;;;5032197;28;20036;-70
2022/03/15 12:29:39;;;;;;;7.43;1.88;;;20.10;91.20;;;;;;5030938;28;20053;-70
2022/03/15 12:32:17;;;;;;;;;;;20.00;91.50;;;;;;5033311;28;20104;-71
2022/03/15 12:34:46;;;;;;;9.40;2.17;;;20.00;91.70;;;;;;5049944;28;19916;-70
2022/03/15 12:37:13;;;;;;;10.60;2.00;;;20.10;91.80;;;;;;5029836;28;20029;-70
2022/03/15 12:39:41;;;;;;;8.00;2.10;;;20.00;92.20;;;;;;5032506;28;20491;-70
2022/03/15 12:42:15;;;;;;;7.93;1.88;;;20.00;92.40;;;;;;5049949;28;20033;-70
2022/03/15 12:45:00;;;;;;;10.05;2.30;;;20.00;92.50;;;;;;5049874;28;20033;-70
2022/03/15 12:47:32;;;;;;;7.55;1.48;;;20.00;92.70;;;;;;5046551;28;20406;-71
2022/03/15 12:50:15;;;;;;;8.80;2.20;;;19.90;92.80;;;;;;5049985;28;20068;-70
2022/03/15 12:52:59;;;;;;;9.32;1.67;;;19.90;93.00;;;;;;5044831;28;20079;-69
2022/03/15 12:55:30;;;;;;;8.18;2.03;;;19.80;93.20;;;;;;5049026;28;20029;-69
2022/03/15 12:58:00;;;;;;;6.63;1.80;;;19.80;93.50;;;;;;5045446;28;20061;-69
2022/03/15 13:00:32;;;;;;;12.00;2.03;;;19.80;93.80;;;;;;5032738;28;20053;-73
2022/03/15 13:02:59;;;;;;;8.98;1.58;;;19.80;94.10;;;;;;5016988;28;20043;-72
2022/03/15 13:05:28;;;;;;;9.48;1.70;;;19.70;94.20;;;;;;5016407;28;20037;-73
2022/03/15 13:08:05;;;;;;;8.35;2.28;;;19.60;94.10;;;;;;5050381;28;20033;-71
2022/03/15 13:10:39;;;;;;;13.43;1.77;;;19.60;94.60;;;;;;5030999;28;20045;-70
2022/03/15 13:13:07;;;;;;;8.25;1.52;;;19.60;94.70;;;;;;5046141;28;20434;-70
2022/03/15 13:15:35;;;;;;;11.40;2.33;;;19.60;94.90;;;;;;5013101;28;20026;-72
2022/03/15 13:18:05;;;;;;;14.20;1.73;;;19.60;95.10;;;;;;5032203;28;20044;-71
2022/03/15 13:20:36;;;;;;;11.40;2.30;;;19.50;95.30;;;;;;5050332;28;20041;-71
2022/03/15 13:23:07;;;;;;;19.17;2.70;;;19.50;95.30;;;;;;5032778;28;20048;-71
2022/03/15 13:25:44;;;;;;;17.33;2.33;;;19.50;95.60;;;;;;5009845;28;20037;-71
2022/03/15 13:28:18;;;;;;;16.13;2.58;;;19.60;95.90;;;;;;5032656;28;20124;-71
2022/03/15 13:30:45;;;;;;;14.13;2.13;;;19.60;96.00;;;;;;5043797;28;20108;-72
2022/03/15 13:33:15;;;;;;;20.08;2.60;;;19.70;96.10;;;;;;5032049;28;20025;-72
2022/03/15 13:35:43;;;;;;;17.85;2.70;;;19.70;96.10;;;;;;5032026;28;20033;-72
2022/03/15 13:38:19;;;;;;;12.82;2.15;;;19.70;96.10;;;;;;5032431;28;20033;-72
2022/03/15 13:40:47;;;;;;;12.73;2.25;;;19.70;96.20;;;;;;5032305;28;20159;-72
2022/03/15 13:43:18;;;;;;;10.88;2.25;;;19.70;96.20;;;;;;5032236;28;20044;-72
2022/03/15 13:45:46;;;;;;;14.40;2.00;;;19.70;96.10;;;;;;5021530;28;20191;-72
2022/03/15 13:48:13;;;;;;;10.07;1.85;;;19.70;96.20;;;;;;5049590;28;20498;-72
2022/03/15 13:50:41;;;;;;;10.90;2.15;;;19.70;96.20;;;;;;5045636;28;20032;-72
2022/03/15 13:53:20;;;;;;;7.28;1.88;;;19.70;96.10;;;;;;5044980;28;20029;-73
2022/03/15 13:55:49;;;;;;;13.18;2.03;;;19.70;96.20;;;;;;5032233;28;20029;-73
2022/03/15 13:58:26;;;;;;;12.68;2.17;;;19.60;96.20;;;;;;5030960;28;20036;-73
2022/03/15 14:01:06;;;;;;;13.60;1.85;;;19.70;96.40;;;;;;5040328;28;20045;-73
2022/03/15 14:03:34;;;;;;;14.27;2.80;;;19.70;96.40;;;;;;5026384;28;20079;-73
2022/03/15 14:06:09;;;;;;;19.50;2.72;;;19.70;96.40;;;;;;5015521;28;20036;-73
2022/03/15 14:08:44;;;;;;;14.90;2.42;;;19.60;96.30;;;;;;5031841;28;20587;-73
2022/03/15 14:11:12;;;;;;;10.35;2.03;;;19.60;96.30;;;;;;5048803;28;20740;-73
2022/03/15 14:13:42;;;;;;;13.93;2.42;;;19.60;96.30;;;;;;5041741;28;20040;-72
2022/03/15 14:16:14;;;;;;;12.85;2.40;;;19.60;96.40;;;;;;5032723;28;20079;-73
2022/03/15 14:18:52;;;;;;;19.05;2.38;;;19.60;96.40;;;;;;5030509;28;20044;-74
2022/03/15 14:21:24;;;;;;;14.15;2.00;;;19.60;96.50;;;;;;5030771;28;20049;-73
2022/03/15 14:23:58;;;;;;;18.42;2.60;;;19.50;96.50;;;;;;5047495;28;20033;-73
2022/03/15 14:26:28;;;;;;;21.77;2.67;;;19.60;96.50;;;;;;5046431;28;20060;-74
2022/03/15 14:29:01;;;;;;;15.73;2.97;;;19.60;96.60;;;;;;5031827;28;20121;-73
2022/03/15 14:31:38;;;;;;;14.73;2.28;;;19.70;96.80;;;;;;5032286;28;20029;-73
2022/03/15 14:34:10;;;;;;;17.35;2.50;;;19.60;96.70;;;;;;5012451;28;20507;-73
2022/03/15 14:36:37;;;;;;;18.60;2.90;;;19.60;96.70;;;;;;5047152;28;20500;-73
2022/03/15 14:39:15;;;;;;;16.05;2.55;;;19.60;96.60;;;;;;5016431;28;20068;-73
2022/03/15 14:41:46;;;;;;;16.13;2.65;;;19.60;96.70;;;;;;5030669;28;20077;-73
2022/03/15 14:44:16;;;;;;;12.55;2.20;;;19.60;96.80;;;;;;5049050;28;20041;-73
2022/03/15 14:46:43;;;;;;;16.77;2.50;;;19.60;96.80;;;;;;5031355;28;20094;-73
2022/03/15 14:49:11;;;;;;;9.02;2.53;;;19.60;96.90;;;;;;5031880;28;20411;-73
2022/03/15 14:51:39;;;;;;;10.75;2.25;;;19.60;96.90;;;;;;5020770;28;20033;-72
2022/03/15 14:54:07;;;;;;;15.10;2.53;;;19.60;96.90;;;;;;5034425;28;20052;-72
2022/03/15 14:56:39;;;;;;;12.85;2.33;;;19.60;97.00;;;;;;5038589;28;20040;-72
2022/03/15 14:59:10;;;;;;;13.45;2.47;;;19.60;97.00;;;;;;5020519;28;20037;-72
2022/03/15 15:01:37;;;;;;;12.43;2.22;;;19.60;97.00;;;;;;5048699;28;20124;-71
2022/03/15 15:04:08;;;;;;;9.02;1.90;;;19.60;97.10;;;;;;5049344;28;20592;-71
2022/03/15 15:06:37;;;;;;;;;;;19.60;97.10;;;;;;5052562;28;20128;-71
2022/03/15 15:09:09;;;;;;;7.80;2.05;;;19.60;97.10;;;;;;5051914;28;20134;-72
2022/03/15 15:11:37;;;;;;;6.25;1.88;;;19.60;97.20;;;;;;5050957;28;20074;-71
2022/03/15 15:14:07;;;;;;;7.60;1.90;;;19.60;97.20;;;;;;5053097;28;20033;-73
2022/03/15 15:16:40;;;;;;;7.40;1.90;;;19.60;97.20;;;;;;5035748;28;20040;-72
2022/03/15 15:19:08;;;;;;;2.97;1.30;;;19.50;97.20;;;;;;5051660;28;20044;-72
2022/03/15 15:21:38;;;;;;;6.63;1.70;;;19.50;97.20;;;;;;5034444;28;20044;-72
2022/03/15 15:24:06;;;;;;;5.57;1.50;;;19.50;97.30;;;;;;5049312;28;20026;-72
2022/03/15 15:26:35;;;;;;;3.30;1.35;;;19.50;97.30;;;;;;5033717;28;20569;-72
2022/03/15 15:29:03;;;;;;;7.88;1.70;;;19.60;97.30;;;;;;5052599;28;20033;-72
2022/03/15 15:31:30;;;;;;;9.60;1.50;;;19.50;97.20;;;;;;5034080;28;20036;-73
2022/03/15 15:33:57;;;;;;;8.30;1.83;;;19.50;97.30;;;;;;5052108;28;20079;-73
2022/03/15 15:36:25;;;;;;;8.50;1.38;;;19.50;97.30;;;;;;5052470;28;20041;-73
2022/03/15 15:38:52;;;;;;;6.10;1.42;;;19.50;97.30;;;;;;5051132;28;20437;-73
2022/03/15 15:41:19;;;;;;;7.50;1.60;;;19.50;97.30;;;;;;5052207;28;20037;-73
2022/03/15 15:43:47;;;;;;;8.30;1.70;;;19.50;97.40;;;;;;5033874;28;20033;-74
2022/03/15 15:46:20;;;;;;;6.18;1.48;;;19.50;97.40;;;;;;5039547;28;20502;-74
2022/03/15 15:48:50;;;;;;;7.25;1.50;;;19.50;97.40;;;;;;5034351;28;20029;-75
2022/03/15 15:51:20;;;;;;;7.47;1.55;;;19.50;97.40;;;;;;5032709;28;20041;-76
2022/03/15 15:53:48;;;;;;;11.30;1.95;;;19.50;97.40;;;;;;5035124;28;20100;-73
2022/03/15 15:56:16;;;;;;;10.00;1.70;;;19.50;97.40;;;;;;5034122;28;20045;-72
2022/03/15 15:58:44;;;;;;;13.43;1.80;;;19.50;97.50;;;;;;5029718;23;20035;-68
2022/03/15 16:01:21;;;;;;;9.68;1.77;;;19.50;97.50;;;;;;5044580;28;20107;-68
2022/03/15 16:03:49;;;;;;;6.15;1.30;;;19.50;97.50;;;;;;5014246;28;20052;-69
2022/03/15 16:06:17;;;;;;;8.40;1.40;;;19.50;97.50;;;;;;5029138;28;20111;-70
2022/03/15 16:08:44;;;;;;;7.40;1.48;;;19.50;97.50;;;;;;5015562;28;20063;-68
2022/03/15 16:11:20;;;;;;;5.20;1.40;;;19.40;97.50;;;;;;5017158;28;20037;-68
2022/03/15 16:13:48;;;;;;;7.60;1.48;;;19.40;97.50;;;;;;5023559;28;20120;-68
2022/03/15 16:16:15;;;;;;;7.45;1.35;;;19.40;97.50;;;;;;5014204;28;20013;-68
2022/03/15 16:18:43;;;;;;;4.93;1.25;;;19.40;97.50;;;;;;5008489;28;20099;-68
2022/03/15 16:21:11;;;;;;;7.90;1.23;;;19.30;97.50;;;;;;5016638;28;20037;-68
2022/03/15 16:23:38;;;;;;;9.57;1.90;;;19.40;97.50;;;;;;5024253;28;20033;-67
2022/03/15 16:26:05;;;;;;;9.23;1.20;;;19.40;97.60;;;;;;5030193;28;20041;-67
2022/03/15 16:28:33;;;;;;;5.78;1.55;;;19.40;97.50;;;;;;5014282;28;20084;-70
2022/03/15 16:31:07;;;;;;;6.78;1.42;;;19.30;97.50;;;;;;5000177;28;20036;-68
2022/03/15 16:33:34;;;;;;;4.90;1.50;;;19.30;97.60;;;;;;5003200;28;20037;-68
2022/03/15 16:36:05;;;;;;;8.05;1.63;;;19.30;97.60;;;;;;5033079;28;20515;-69
2022/03/15 16:38:36;;;;;;;9.10;1.83;;;19.30;97.60;;;;;;4998247;28;20029;-68
2022/03/15 16:41:04;;;;;;;5.85;1.75;;;19.30;97.60;;;;;;5000599;28;20073;-68
2022/03/15 16:43:31;;;;;;;7.53;1.50;;;19.30;97.60;;;;;;5019255;28;20032;-67
2022/03/15 16:45:58;;;;;;;3.97;1.30;;;19.30;97.60;;;;;;5038469;28;20029;-67
2022/03/15 16:48:26;;;;;;;6.25;1.30;;;19.30;97.60;;;;;;5031982;28;20455;-68
2022/03/15 16:50:53;;;;;;;3.55;1.23;;;19.30;97.60;;;;;;5013580;28;20041;-68
2022/03/15 16:53:20;;;;;;;5.55;1.45;;;19.40;97.70;;;;;;5031407;28;20041;-67
2022/03/15 16:55:50;;;;;;;6.13;1.50;;;19.40;97.70;;;;;;5014074;28;20511;-67
2022/03/15 17:01:03;;;;;;;5.63;1.55;;;19.30;97.60;;;;;;5015184;28;20052;-68
2022/03/15 17:06:16;;;;;;;3.80;1.30;;;19.30;97.70;;;;;;4983183;28;20111;-68
2022/03/15 17:08:44;;;;;;;8.65;1.63;;;19.40;97.80;;;;;;5022290;28;20026;-68
2022/03/15 17:11:11;;;;;;;5.18;1.60;;;19.30;97.80;;;;;;4997561;28;20042;-68
2022/03/15 17:13:43;;;;;;;5.28;1.50;;;19.40;97.80;;;;;;4998607;28;20483;-68
2022/03/15 17:16:17;;;;;;;12.32;2.35;;;19.40;97.80;;;;;;5003296;28;20044;-67
2022/03/15 17:18:48;;;;;;;8.35;1.40;;;19.40;97.70;;;;;;5035232;28;20056;-67
2022/03/15 17:21:16;;;;;;;11.40;1.50;;;19.40;97.80;;;;;;5037152;28;20052;-68
2022/03/15 17:23:47;;;;;;;10.32;1.75;;;19.40;97.80;;;;;;5030778;28;20471;-67
2022/03/15 17:26:19;;;;;;;9.57;2.33;;;19.40;97.80;;;;;;5030287;28;20353;-67
2022/03/15 17:28:51;;;;;;;7.63;1.60;;;19.30;97.70;;;;;;5032336;28;20032;-68
2022/03/15 17:31:18;;;;;;;9.23;2.10;;;19.30;97.80;;;;;;5036118;28;20068;-68
2022/03/15 17:33:49;;;;;;;5.50;1.45;;;19.30;97.80;;;;;;5012048;28;20060;-68
2022/03/15 17:36:16;;;;;;;11.85;1.58;;;19.30;97.80;;;;;;5015591;28;20040;-67
2022/03/15 17:38:47;;;;;;;8.02;1.63;;;19.40;97.80;;;;;;5000293;28;20029;-68
2022/03/15 17:41:23;;;;;;;5.50;1.50;;;19.40;97.80;;;;;;5021315;28;20123;-68
2022/03/15 17:43:51;;;;;;;5.82;1.60;;;19.40;97.80;;;;;;4995063;28;20030;-67
2022/03/15 17:46:22;;;;;;;6.68;1.58;;;19.30;97.80;;;;;;5012879;28;20044;-68
2022/03/15 17:48:55;;;;;;;5.65;1.30;;;19.40;97.80;;;;;;5013025;28;20029;-68
2022/03/15 17:51:23;;;;;;;5.82;1.30;;;19.30;97.80;;;;;;5017018;28;20029;-67
2022/03/15 17:53:51;;;;;;;3.47;1.25;;;19.30;97.80;;;;;;4996599;28;20041;-68
2022/03/15 17:56:18;;;;;;;11.77;1.88;;;19.30;97.80;;;;;;4995644;28;20483;-68
2022/03/15 17:58:50;;;;;;;10.93;1.63;;;19.30;97.80;;;;;;5031848;28;20183;-68
2022/03/15 18:01:19;;;;;;;7.15;1.38;;;19.30;97.80;;;;;;5030696;28;20492;-67
2022/03/15 18:03:46;;;;;;;8.57;1.35;;;19.30;97.80;;;;;;5000130;28;20037;-68
2022/03/15 18:06:14;;;;;;;9.18;1.50;;;19.30;97.80;;;;;;5013621;28;20499;-68
2022/03/15 18:08:41;;;;;;;11.90;1.77;;;19.30;97.80;;;;;;5041183;28;20021;-68
2022/03/15 18:11:10;;;;;;;7.18;1.80;;;19.30;97.80;;;;;;5042290;28;20055;-67
2022/03/15 18:13:38;;;;;;;8.35;1.58;;;19.30;97.80;;;;;;5025717;28;20053;-68
2022/03/15 18:16:07;;;;;;;10.82;1.73;;;19.30;97.80;;;;;;5012051;28;20029;-68
2022/03/15 18:18:36;;;;;;;5.13;1.30;;;19.30;97.90;;;;;;5012923;28;20029;-68
2022/03/15 18:21:05;;;;;;;7.10;1.52;;;19.30;97.90;;;;;;5002938;28;20519;-67
2022/03/15 18:23:34;;;;;;;6.85;1.63;;;19.30;97.90;;;;;;5032831;28;20034;-68
2022/03/15 18:26:13;;;;;;;12.50;2.15;;;19.30;98.00;;;;;;4997641;28;20034;-68
2022/03/15 18:28:41;;;;;;;9.00;1.70;;;19.30;97.90;;;;;;5006508;28;20344;-68
2022/03/15 18:31:09;;;;;;;10.70;1.88;;;19.30;97.90;;;;;;5028119;28;20048;-68
2022/03/15 18:33:38;;;;;;;13.73;2.08;;;19.20;97.90;;;;;;5026864;28;20033;-68
2022/03/15 18:36:05;;;;;;;8.68;1.42;;;19.30;97.90;;;;;;5028533;28;20040;-68
2022/03/15 18:38:32;;;;;;;10.82;2.33;;;19.20;97.90;;;;;;5006592;28;20771;-69
2022/03/15 18:41:00;;;;;;;13.05;1.80;;;19.20;97.90;;;;;;5030857;28;20056;-70
2022/03/15 18:43:28;;;;;;;7.22;1.60;;;19.30;97.90;;;;;;4982504;28;20133;-69
2022/03/15 18:46:00;;;;;;;13.38;1.88;;;19.20;97.90;;;;;;5016263;28;20061;-70
2022/03/15 18:48:29;;;;;;;8.80;2.22;;;19.20;97.90;;;;;;5002061;28;20029;-69
2022/03/15 18:50:58;;;;;;;8.60;1.88;;;19.20;97.90;;;;;;5020753;28;20425;-69
2022/03/15 18:53:27;;;;;;;9.30;2.58;;;19.20;97.90;;;;;;5011387;28;20107;-70
2022/03/15 18:55:55;;;;;;;12.20;2.35;;;19.30;98.00;;;;;;5015779;28;20048;-69
2022/03/15 18:58:23;;;;;;;9.25;1.88;;;19.30;98.00;;;;;;5014994;28;20109;-69
2022/03/15 19:00:53;;;;;;;11.73;2.00;;;19.30;98.00;;;;;;4995954;28;20391;-69
2022/03/15 19:03:27;;;;;;;10.40;2.22;;;19.30;98.00;;;;;;5013430;28;20037;-69
2022/03/15 19:05:55;;;;;;;14.35;1.80;;;19.30;98.00;;;;;;5002047;28;20513;-69
2022/03/15 19:08:24;;;;;;;9.90;2.22;;;19.30;98.00;;;;;;5020840;28;20044;-70
2022/03/15 19:10:52;;;;;;;7.75;1.60;;;19.30;97.90;;;;;;5016301;28;20033;-70